DAL1502 KLAX-KATL
Flight info
| Callsign | DAL1502 |
|---|---|
| Flight time | 3h 40m |
| Altitude | 41000 |
| Route | DOTSS2 CLEEE PKE DRK KA36U KA36W KK36A KK36C OKM KM33G MEMFS HUTCC KNSAW RUSSA GLAVN2 |
| Aircraft | A359/H-SDE2E3GHIJ3J4J5LM1ORWXY/LB1D1 |
Departure
| Time | 2026-05-06 13:19 |
|---|---|
| Airport | Los Angeles International Airport (KLAX) |
Arrival
| Time | 2026-05-06 16:59 |
|---|---|
| Airport | Hartsfield Jackson Atlanta International Airport (KATL) |
| Time | Latitude | Longitude | Altitude | Speed | Heading |
|---|---|---|---|---|---|
| 2026-05-06 12:41 | 33.94477 | -118.40986 | 102 ft | 0 kts | 261° |
| 2026-05-06 12:42 | 33.94476 | -118.40993 | 102 ft | 0 kts | 261° |
| 2026-05-06 13:00 | 33.94476 | -118.40988 | 99 ft | 3 kts | 261° |
| 2026-05-06 13:00 | 33.94480 | -118.40959 | 99 ft | 2 kts | 261° |
| 2026-05-06 13:00 | 33.94484 | -118.40932 | 98 ft | 4 kts | 261° |
| 2026-05-06 13:01 | 33.94483 | -118.40903 | 88 ft | 3 kts | 304° |
| 2026-05-06 13:01 | 33.94490 | -118.40909 | 84 ft | 4 kts | 326° |
| 2026-05-06 13:01 | 33.94515 | -118.40914 | 100 ft | 4 kts | 356° |
| 2026-05-06 13:01 | 33.94533 | -118.40916 | 100 ft | 0 kts | 354° |
| 2026-05-06 13:06 | 33.94566 | -118.40908 | 101 ft | 15 kts | 15° |
| 2026-05-06 13:07 | 33.94678 | -118.40909 | 100 ft | 17 kts | 354° |
| 2026-05-06 13:07 | 33.94707 | -118.40912 | 100 ft | 4 kts | 357° |
| 2026-05-06 13:07 | 33.94726 | -118.40910 | 101 ft | 0 kts | 8° |
| 2026-05-06 13:07 | 33.94737 | -118.40907 | 101 ft | 6 kts | 15° |
| 2026-05-06 13:08 | 33.94794 | -118.40883 | 103 ft | 9 kts | 11° |
| 2026-05-06 13:08 | 33.94837 | -118.40824 | 103 ft | 13 kts | 71° |
| 2026-05-06 13:08 | 33.94854 | -118.40693 | 101 ft | 18 kts | 82° |
| 2026-05-06 13:08 | 33.94870 | -118.40536 | 100 ft | 20 kts | 83° |
| 2026-05-06 13:09 | 33.94887 | -118.40365 | 101 ft | 22 kts | 83° |
| 2026-05-06 13:09 | 33.94907 | -118.40179 | 102 ft | 23 kts | 81° |
| 2026-05-06 13:09 | 33.94925 | -118.39985 | 99 ft | 14 kts | 84° |
| 2026-05-06 13:09 | 33.94930 | -118.39962 | 99 ft | 0 kts | 69° |
| 2026-05-06 13:11 | 33.94968 | -118.39921 | 102 ft | 19 kts | 20° |
| 2026-05-06 13:11 | 33.95030 | -118.39944 | 100 ft | 6 kts | 301° |
| 2026-05-06 13:11 | 33.95035 | -118.40009 | 100 ft | 0 kts | 265° |
| 2026-05-06 13:18 | 33.95027 | -118.40099 | 103 ft | 40 kts | 263° |
| 2026-05-06 13:19 | 33.94963 | -118.40739 | 104 ft | 110 kts | 263° |
| 2026-05-06 13:19 | 33.94890 | -118.41458 | 104 ft | 150 kts | 263° |
| 2026-05-06 13:19 | 33.94659 | -118.43339 | 593 ft | 181 kts | 262° |
| 2026-05-06 13:19 | 33.94487 | -118.44910 | 1200 ft | 197 kts | 263° |
| 2026-05-06 13:20 | 33.94341 | -118.46608 | 1739 ft | 217 kts | 264° |
| 2026-05-06 13:20 | 33.94254 | -118.47863 | 1943 ft | 236 kts | 267° |
| 2026-05-06 13:20 | 33.94204 | -118.49916 | 2553 ft | 250 kts | 269° |
| 2026-05-06 13:20 | 33.94154 | -118.52014 | 3464 ft | 250 kts | 268° |
| 2026-05-06 13:21 | 33.94005 | -118.54110 | 4319 ft | 253 kts | 266° |
| 2026-05-06 13:21 | 33.93827 | -118.56234 | 5104 ft | 257 kts | 266° |
| 2026-05-06 13:21 | 33.93649 | -118.58412 | 5823 ft | 266 kts | 266° |
| 2026-05-06 13:21 | 33.93316 | -118.60650 | 6492 ft | 277 kts | 253° |
| 2026-05-06 13:22 | 33.92299 | -118.62648 | 7216 ft | 286 kts | 225° |
| 2026-05-06 13:22 | 33.90596 | -118.63900 | 8017 ft | 291 kts | 196° |
| 2026-05-06 13:22 | 33.88586 | -118.64160 | 8861 ft | 292 kts | 176° |
| 2026-05-06 13:22 | 33.86547 | -118.64010 | 9720 ft | 296 kts | 173° |
| 2026-05-06 13:23 | 33.84488 | -118.63685 | 10406 ft | 304 kts | 163° |
| 2026-05-06 13:23 | 33.82541 | -118.62622 | 10727 ft | 321 kts | 144° |
| 2026-05-06 13:23 | 33.80627 | -118.61063 | 11077 ft | 340 kts | 142° |
| 2026-05-06 13:23 | 33.78653 | -118.59405 | 11663 ft | 350 kts | 142° |
| 2026-05-06 13:24 | 33.76631 | -118.57729 | 12379 ft | 357 kts | 142° |
| 2026-05-06 13:24 | 33.74564 | -118.56033 | 13099 ft | 363 kts | 142° |
| 2026-05-06 13:24 | 33.72454 | -118.54309 | 13817 ft | 369 kts | 142° |
| 2026-05-06 13:24 | 33.70467 | -118.52348 | 14469 ft | 369 kts | 128° |
| 2026-05-06 13:25 | 33.69069 | -118.49810 | 15206 ft | 363 kts | 109° |
| 2026-05-06 13:25 | 33.68163 | -118.46988 | 15929 ft | 363 kts | 105° |
| 2026-05-06 13:25 | 33.67327 | -118.44109 | 16628 ft | 367 kts | 105° |
| 2026-05-06 13:25 | 33.66491 | -118.41234 | 17309 ft | 371 kts | 105° |
| 2026-05-06 13:26 | 33.65632 | -118.38303 | 17998 ft | 374 kts | 105° |
| 2026-05-06 13:26 | 33.64802 | -118.35320 | 18679 ft | 376 kts | 101° |
| 2026-05-06 13:26 | 33.64442 | -118.32230 | 19322 ft | 372 kts | 88° |
| 2026-05-06 13:26 | 33.64415 | -118.29120 | 19955 ft | 375 kts | 85° |
| 2026-05-06 13:27 | 33.64435 | -118.25972 | 20601 ft | 378 kts | 85° |
| 2026-05-06 13:27 | 33.64451 | -118.22805 | 21268 ft | 381 kts | 85° |
| 2026-05-06 13:27 | 33.64460 | -118.19606 | 21921 ft | 385 kts | 85° |
| 2026-05-06 13:27 | 33.64465 | -118.16420 | 22559 ft | 388 kts | 85° |
| 2026-05-06 13:28 | 33.64468 | -118.13171 | 23194 ft | 391 kts | 85° |
| 2026-05-06 13:28 | 33.64468 | -118.09873 | 23825 ft | 395 kts | 85° |
| 2026-05-06 13:28 | 33.64466 | -118.06573 | 24364 ft | 398 kts | 85° |
| 2026-05-06 13:28 | 33.64463 | -118.03248 | 24956 ft | 399 kts | 85° |
| 2026-05-06 13:29 | 33.64459 | -117.99906 | 25512 ft | 401 kts | 85° |
| 2026-05-06 13:29 | 33.64454 | -117.96544 | 26036 ft | 404 kts | 85° |
| 2026-05-06 13:29 | 33.64448 | -117.93160 | 26588 ft | 407 kts | 85° |
| 2026-05-06 13:29 | 33.64441 | -117.89792 | 27133 ft | 409 kts | 85° |
| 2026-05-06 13:30 | 33.64433 | -117.86369 | 27656 ft | 411 kts | 85° |
| 2026-05-06 13:30 | 33.64426 | -117.82925 | 28174 ft | 414 kts | 85° |
| 2026-05-06 13:30 | 33.64562 | -117.79476 | 28679 ft | 413 kts | 78° |
| 2026-05-06 13:30 | 33.65066 | -117.76087 | 29173 ft | 412 kts | 73° |
| 2026-05-06 13:31 | 33.65708 | -117.72727 | 29656 ft | 415 kts | 73° |
| 2026-05-06 13:31 | 33.66368 | -117.69343 | 30135 ft | 418 kts | 73° |
| 2026-05-06 13:31 | 33.67032 | -117.65928 | 30520 ft | 420 kts | 73° |
| 2026-05-06 13:31 | 33.67694 | -117.62499 | 30913 ft | 422 kts | 73° |
| 2026-05-06 13:32 | 33.68355 | -117.59063 | 31285 ft | 425 kts | 73° |
| 2026-05-06 13:32 | 33.69022 | -117.55590 | 31656 ft | 427 kts | 73° |
| 2026-05-06 13:32 | 33.69688 | -117.52107 | 31997 ft | 429 kts | 73° |
| 2026-05-06 13:32 | 33.70349 | -117.48642 | 32379 ft | 431 kts | 73° |
| 2026-05-06 13:33 | 33.71018 | -117.45132 | 32751 ft | 433 kts | 73° |
| 2026-05-06 13:33 | 33.71691 | -117.41598 | 33071 ft | 436 kts | 73° |
| 2026-05-06 13:33 | 33.72369 | -117.38033 | 33412 ft | 438 kts | 73° |
| 2026-05-06 13:33 | 33.73049 | -117.34448 | 33700 ft | 440 kts | 73° |
| 2026-05-06 13:34 | 33.73731 | -117.30845 | 33999 ft | 442 kts | 73° |
| 2026-05-06 13:34 | 33.74412 | -117.27242 | 34261 ft | 444 kts | 73° |
| 2026-05-06 13:34 | 33.74951 | -117.23563 | 34438 ft | 451 kts | 79° |
| 2026-05-06 13:34 | 33.75083 | -117.19768 | 34624 ft | 458 kts | 86° |
| 2026-05-06 13:35 | 33.75021 | -117.15958 | 34869 ft | 461 kts | 87° |
| 2026-05-06 13:35 | 33.74934 | -117.12090 | 35103 ft | 463 kts | 87° |
| 2026-05-06 13:35 | 33.74847 | -117.08226 | 35336 ft | 464 kts | 87° |
| 2026-05-06 13:35 | 33.74761 | -117.04337 | 35594 ft | 465 kts | 87° |
| 2026-05-06 13:36 | 33.74676 | -117.00436 | 35835 ft | 466 kts | 87° |
| 2026-05-06 13:36 | 33.74593 | -116.96585 | 36072 ft | 466 kts | 87° |
| 2026-05-06 13:36 | 33.74506 | -116.92688 | 36298 ft | 467 kts | 87° |
| 2026-05-06 13:36 | 33.74419 | -116.88768 | 36538 ft | 468 kts | 88° |
| 2026-05-06 13:37 | 33.74331 | -116.84850 | 36751 ft | 470 kts | 88° |
| 2026-05-06 13:37 | 33.74242 | -116.80904 | 36914 ft | 472 kts | 88° |
| 2026-05-06 13:37 | 33.74153 | -116.77003 | 37111 ft | 473 kts | 88° |
| 2026-05-06 13:37 | 33.74061 | -116.73046 | 37285 ft | 473 kts | 88° |
| 2026-05-06 13:38 | 33.73966 | -116.69085 | 37520 ft | 474 kts | 88° |
| 2026-05-06 13:38 | 33.73871 | -116.65135 | 37730 ft | 474 kts | 88° |
| 2026-05-06 13:38 | 33.73775 | -116.61153 | 37890 ft | 476 kts | 88° |
| 2026-05-06 13:38 | 33.73677 | -116.57179 | 38091 ft | 476 kts | 88° |
| 2026-05-06 13:39 | 33.73577 | -116.53177 | 38197 ft | 481 kts | 90° |
| 2026-05-06 13:39 | 33.73371 | -116.45097 | 38418 ft | 485 kts | 90° |
| 2026-05-06 13:39 | 33.73266 | -116.41047 | 38658 ft | 485 kts | 90° |
| 2026-05-06 13:40 | 33.73160 | -116.36999 | 38797 ft | 485 kts | 90° |
| 2026-05-06 13:40 | 33.73051 | -116.32936 | 38947 ft | 486 kts | 90° |
| 2026-05-06 13:40 | 33.72944 | -116.28928 | 39085 ft | 487 kts | 90° |
| 2026-05-06 13:40 | 33.72833 | -116.24863 | 39207 ft | 488 kts | 90° |
| 2026-05-06 13:41 | 33.72721 | -116.20781 | 39270 ft | 490 kts | 90° |
| 2026-05-06 13:41 | 33.72493 | -116.12585 | 39517 ft | 491 kts | 90° |
| 2026-05-06 13:41 | 33.72585 | -116.08480 | 39641 ft | 490 kts | 83° |
| 2026-05-06 13:42 | 33.73190 | -116.04464 | 39743 ft | 489 kts | 73° |
| 2026-05-06 13:42 | 33.74150 | -116.00547 | 39889 ft | 489 kts | 71° |
| 2026-05-06 13:42 | 33.75207 | -115.96654 | 39984 ft | 489 kts | 70° |
| 2026-05-06 13:43 | 33.77418 | -115.88883 | 40075 ft | 494 kts | 70° |
| 2026-05-06 13:43 | 33.78530 | -115.84971 | 40214 ft | 494 kts | 70° |
| 2026-05-06 13:43 | 33.79635 | -115.81048 | 40338 ft | 494 kts | 70° |
| 2026-05-06 13:43 | 33.80727 | -115.77129 | 40454 ft | 494 kts | 70° |
| 2026-05-06 13:44 | 33.81801 | -115.73252 | 40570 ft | 495 kts | 70° |
| 2026-05-06 13:44 | 33.82899 | -115.69267 | 40673 ft | 495 kts | 71° |
| 2026-05-06 13:44 | 33.83967 | -115.65379 | 40781 ft | 496 kts | 71° |
| 2026-05-06 13:45 | 33.86137 | -115.57466 | 40841 ft | 500 kts | 71° |
| 2026-05-06 13:45 | 33.88315 | -115.49502 | 41014 ft | 501 kts | 71° |
| 2026-05-06 13:45 | 33.89406 | -115.45507 | 41021 ft | 502 kts | 71° |
| 2026-05-06 13:46 | 33.91585 | -115.37509 | 41019 ft | 502 kts | 71° |
| 2026-05-06 13:46 | 33.93743 | -115.29566 | 41023 ft | 503 kts | 71° |
| 2026-05-06 13:47 | 33.95920 | -115.21532 | 41016 ft | 505 kts | 71° |
| 2026-05-06 13:47 | 33.98100 | -115.13462 | 41018 ft | 505 kts | 71° |
| 2026-05-06 13:48 | 34.00254 | -115.05463 | 41018 ft | 505 kts | 71° |
| 2026-05-06 13:48 | 34.02418 | -114.97404 | 41008 ft | 506 kts | 71° |
| 2026-05-06 13:49 | 34.04584 | -114.89316 | 41004 ft | 508 kts | 71° |
| 2026-05-06 13:49 | 34.06753 | -114.81193 | 41006 ft | 508 kts | 71° |
| 2026-05-06 13:50 | 34.08915 | -114.73070 | 41002 ft | 508 kts | 71° |
| 2026-05-06 13:50 | 34.11080 | -114.64963 | 41004 ft | 508 kts | 71° |
| 2026-05-06 13:51 | 34.13347 | -114.56936 | 40998 ft | 508 kts | 70° |
| 2026-05-06 13:51 | 34.15655 | -114.48876 | 40984 ft | 508 kts | 70° |
| 2026-05-06 13:52 | 34.17947 | -114.40792 | 40980 ft | 508 kts | 70° |
| 2026-05-06 13:52 | 34.20219 | -114.32705 | 40979 ft | 509 kts | 71° |
| 2026-05-06 13:53 | 34.22488 | -114.24591 | 40972 ft | 510 kts | 71° |
| 2026-05-06 13:53 | 34.24742 | -114.16508 | 40974 ft | 510 kts | 71° |
| 2026-05-06 13:54 | 34.27004 | -114.08373 | 40974 ft | 510 kts | 71° |
| 2026-05-06 13:54 | 34.29265 | -114.00220 | 40977 ft | 512 kts | 71° |
| 2026-05-06 13:55 | 34.31524 | -113.92050 | 40982 ft | 513 kts | 71° |
| 2026-05-06 13:55 | 34.33774 | -113.83886 | 40968 ft | 510 kts | 71° |
| 2026-05-06 13:56 | 34.35996 | -113.75806 | 40967 ft | 509 kts | 71° |
| 2026-05-06 13:56 | 34.38227 | -113.67669 | 40969 ft | 510 kts | 71° |
| 2026-05-06 13:57 | 34.40459 | -113.59502 | 40966 ft | 511 kts | 71° |
| 2026-05-06 13:57 | 34.42688 | -113.51323 | 40964 ft | 511 kts | 71° |
| 2026-05-06 13:58 | 34.44912 | -113.43138 | 40973 ft | 511 kts | 71° |
| 2026-05-06 13:58 | 34.47135 | -113.34931 | 40971 ft | 513 kts | 71° |
| 2026-05-06 13:59 | 34.49357 | -113.26702 | 40973 ft | 514 kts | 71° |
| 2026-05-06 13:59 | 34.51561 | -113.18516 | 40973 ft | 514 kts | 71° |
| 2026-05-06 14:00 | 34.53774 | -113.10272 | 40981 ft | 514 kts | 71° |
| 2026-05-06 14:00 | 34.55988 | -113.02002 | 40980 ft | 517 kts | 71° |
| 2026-05-06 14:01 | 34.58208 | -112.93678 | 40982 ft | 518 kts | 71° |
| 2026-05-06 14:01 | 34.60421 | -112.85360 | 40982 ft | 518 kts | 71° |
| 2026-05-06 14:02 | 34.62630 | -112.77028 | 40995 ft | 518 kts | 72° |
| 2026-05-06 14:02 | 34.64839 | -112.68673 | 40992 ft | 520 kts | 72° |
| 2026-05-06 14:03 | 34.67033 | -112.60346 | 40994 ft | 521 kts | 72° |
| 2026-05-06 14:03 | 34.69237 | -112.51957 | 40996 ft | 521 kts | 72° |
| 2026-05-06 14:04 | 34.70337 | -112.47761 | 41138 ft | 521 kts | 72° |
| 2026-05-06 14:04 | 34.71399 | -112.43557 | 41141 ft | 521 kts | 73° |
| 2026-05-06 14:04 | 34.73337 | -112.35043 | 41133 ft | 524 kts | 75° |
| 2026-05-06 14:05 | 34.75236 | -112.26470 | 41107 ft | 524 kts | 75° |
| 2026-05-06 14:05 | 34.77159 | -112.17916 | 41095 ft | 524 kts | 74° |
| 2026-05-06 14:06 | 34.79085 | -112.09420 | 41087 ft | 525 kts | 74° |
| 2026-05-06 14:06 | 34.81032 | -112.00828 | 41113 ft | 528 kts | 74° |
| 2026-05-06 14:07 | 34.82976 | -111.92215 | 41131 ft | 528 kts | 75° |
| 2026-05-06 14:07 | 34.84915 | -111.83587 | 41136 ft | 528 kts | 75° |
| 2026-05-06 14:08 | 34.86523 | -111.76408 | 41138 ft | 529 kts | 75° |
| 2026-05-06 14:08 | 34.88458 | -111.67740 | 41134 ft | 531 kts | 75° |
| 2026-05-06 14:09 | 34.90392 | -111.59043 | 41125 ft | 531 kts | 75° |
| 2026-05-06 14:09 | 34.92309 | -111.50390 | 41087 ft | 531 kts | 75° |
| 2026-05-06 14:10 | 34.94229 | -111.41694 | 41086 ft | 531 kts | 75° |
| 2026-05-06 14:10 | 34.96144 | -111.32986 | 41067 ft | 531 kts | 75° |
| 2026-05-06 14:11 | 34.98053 | -111.24274 | 41054 ft | 531 kts | 75° |
| 2026-05-06 14:11 | 34.99942 | -111.15621 | 41052 ft | 531 kts | 75° |
| 2026-05-06 14:12 | 35.01840 | -111.06896 | 41059 ft | 532 kts | 75° |
| 2026-05-06 14:12 | 35.03736 | -110.98151 | 41069 ft | 533 kts | 75° |
| 2026-05-06 14:13 | 35.05627 | -110.89391 | 41092 ft | 533 kts | 75° |
| 2026-05-06 14:13 | 35.07499 | -110.80685 | 41112 ft | 533 kts | 75° |
| 2026-05-06 14:14 | 35.09380 | -110.71904 | 41110 ft | 536 kts | 75° |
| 2026-05-06 14:14 | 35.11262 | -110.63084 | 41099 ft | 537 kts | 76° |
| 2026-05-06 14:15 | 35.13142 | -110.54239 | 41010 ft | 537 kts | 76° |
| 2026-05-06 14:15 | 35.15018 | -110.45384 | 41010 ft | 537 kts | 76° |
| 2026-05-06 14:16 | 35.16887 | -110.36522 | 41010 ft | 540 kts | 76° |
| 2026-05-06 14:16 | 35.18749 | -110.27659 | 41010 ft | 541 kts | 76° |
| 2026-05-06 14:17 | 35.20617 | -110.18736 | 41005 ft | 540 kts | 76° |
| 2026-05-06 14:17 | 35.22476 | -110.09816 | 41010 ft | 541 kts | 76° |
| 2026-05-06 14:18 | 35.24321 | -110.00932 | 41009 ft | 543 kts | 76° |
| 2026-05-06 14:18 | 35.26175 | -109.91966 | 41010 ft | 543 kts | 76° |
| 2026-05-06 14:19 | 35.28023 | -109.82996 | 41010 ft | 543 kts | 76° |
| 2026-05-06 14:19 | 35.29865 | -109.74015 | 41011 ft | 545 kts | 76° |
| 2026-05-06 14:20 | 35.31709 | -109.64987 | 41007 ft | 547 kts | 76° |
| 2026-05-06 14:20 | 35.33550 | -109.55944 | 41007 ft | 547 kts | 76° |
| 2026-05-06 14:21 | 35.35382 | -109.46901 | 41004 ft | 547 kts | 76° |
| 2026-05-06 14:21 | 35.37199 | -109.37898 | 41001 ft | 549 kts | 77° |
| 2026-05-06 14:22 | 35.39029 | -109.28793 | 41019 ft | 550 kts | 77° |
| 2026-05-06 14:22 | 35.40853 | -109.19677 | 41041 ft | 550 kts | 77° |
| 2026-05-06 14:23 | 35.42669 | -109.10565 | 41064 ft | 550 kts | 77° |
| 2026-05-06 14:23 | 35.44471 | -109.01481 | 41088 ft | 552 kts | 77° |
| 2026-05-06 14:24 | 35.46283 | -108.92312 | 41125 ft | 553 kts | 77° |
| 2026-05-06 14:24 | 35.48092 | -108.83118 | 41137 ft | 553 kts | 77° |
| 2026-05-06 14:25 | 35.49891 | -108.73938 | 41025 ft | 554 kts | 77° |
| 2026-05-06 14:25 | 35.51686 | -108.64735 | 41018 ft | 556 kts | 77° |
| 2026-05-06 14:26 | 35.53468 | -108.55543 | 41021 ft | 555 kts | 77° |
| 2026-05-06 14:26 | 35.55249 | -108.46333 | 41015 ft | 553 kts | 77° |
| 2026-05-06 14:27 | 35.57021 | -108.37138 | 41002 ft | 553 kts | 77° |
| 2026-05-06 14:27 | 35.58778 | -108.27979 | 41003 ft | 555 kts | 77° |
| 2026-05-06 14:28 | 35.60540 | -108.18745 | 40998 ft | 555 kts | 77° |
| 2026-05-06 14:28 | 35.62296 | -108.09499 | 40985 ft | 555 kts | 77° |
| 2026-05-06 14:29 | 35.64033 | -108.00313 | 40988 ft | 555 kts | 77° |
| 2026-05-06 14:29 | 35.65776 | -107.91059 | 40986 ft | 555 kts | 78° |
| 2026-05-06 14:30 | 35.67512 | -107.81800 | 40985 ft | 555 kts | 78° |
| 2026-05-06 14:30 | 35.69241 | -107.72540 | 40982 ft | 555 kts | 78° |
| 2026-05-06 14:31 | 35.70967 | -107.63249 | 40974 ft | 557 kts | 78° |
| 2026-05-06 14:31 | 35.72677 | -107.53999 | 40975 ft | 557 kts | 78° |
| 2026-05-06 14:32 | 35.74389 | -107.44695 | 40972 ft | 557 kts | 78° |
| 2026-05-06 14:32 | 35.76097 | -107.35378 | 40975 ft | 558 kts | 78° |
| 2026-05-06 14:33 | 35.77803 | -107.26022 | 40975 ft | 559 kts | 78° |
| 2026-05-06 14:33 | 35.79500 | -107.16669 | 40962 ft | 560 kts | 78° |
| 2026-05-06 14:34 | 35.81192 | -107.07303 | 40970 ft | 560 kts | 78° |
| 2026-05-06 14:34 | 35.82868 | -106.97983 | 40959 ft | 561 kts | 79° |
| 2026-05-06 14:35 | 35.84552 | -106.88571 | 40958 ft | 561 kts | 79° |
| 2026-05-06 14:35 | 35.86226 | -106.79177 | 40951 ft | 561 kts | 79° |
| 2026-05-06 14:36 | 35.87893 | -106.69772 | 40950 ft | 561 kts | 79° |
| 2026-05-06 14:36 | 35.89556 | -106.60344 | 40976 ft | 563 kts | 79° |
| 2026-05-06 14:37 | 35.91205 | -106.50944 | 41012 ft | 564 kts | 79° |
| 2026-05-06 14:37 | 35.92862 | -106.41458 | 41037 ft | 564 kts | 79° |
| 2026-05-06 14:38 | 35.94512 | -106.31963 | 41069 ft | 565 kts | 79° |
| 2026-05-06 14:38 | 35.96145 | -106.22519 | 41065 ft | 567 kts | 80° |
| 2026-05-06 14:39 | 35.97787 | -106.12984 | 41025 ft | 567 kts | 80° |
| 2026-05-06 14:39 | 35.99415 | -106.03455 | 40990 ft | 567 kts | 80° |
| 2026-05-06 14:40 | 35.99891 | -105.98636 | 40969 ft | 564 kts | 91° |
| 2026-05-06 14:40 | 36.00062 | -105.93803 | 40946 ft | 564 kts | 92° |
| 2026-05-06 14:40 | 36.00190 | -105.84093 | 40914 ft | 566 kts | 94° |
| 2026-05-06 14:41 | 36.00221 | -105.74365 | 40901 ft | 566 kts | 94° |
| 2026-05-06 14:41 | 36.00254 | -105.64640 | 40891 ft | 566 kts | 94° |
| 2026-05-06 14:42 | 36.00293 | -105.54960 | 40884 ft | 568 kts | 94° |
| 2026-05-06 14:42 | 36.00333 | -105.45190 | 40866 ft | 569 kts | 94° |
| 2026-05-06 14:43 | 36.00368 | -105.35418 | 40861 ft | 569 kts | 94° |
| 2026-05-06 14:43 | 36.00394 | -105.25629 | 40840 ft | 570 kts | 94° |
| 2026-05-06 14:44 | 36.00410 | -105.15815 | 40850 ft | 573 kts | 95° |
| 2026-05-06 14:45 | 36.00421 | -105.01025 | 40860 ft | 574 kts | 95° |
| 2026-05-06 14:45 | 36.00418 | -104.91243 | 40871 ft | 574 kts | 95° |
| 2026-05-06 14:46 | 36.00407 | -104.81365 | 40883 ft | 576 kts | 95° |
| 2026-05-06 14:46 | 36.00387 | -104.71463 | 40883 ft | 577 kts | 95° |
| 2026-05-06 14:47 | 36.00360 | -104.61553 | 40907 ft | 577 kts | 95° |
| 2026-05-06 14:47 | 36.00325 | -104.51644 | 40906 ft | 576 kts | 95° |
| 2026-05-06 14:48 | 36.00281 | -104.41739 | 40927 ft | 576 kts | 95° |
| 2026-05-06 14:48 | 36.00229 | -104.31841 | 40950 ft | 577 kts | 95° |
| 2026-05-06 14:49 | 36.00169 | -104.21932 | 40947 ft | 577 kts | 95° |
| 2026-05-06 14:49 | 36.00100 | -104.12066 | 40969 ft | 579 kts | 96° |
| 2026-05-06 14:50 | 36.00023 | -104.02111 | 40984 ft | 580 kts | 96° |
| 2026-05-06 14:50 | 36.00024 | -103.92123 | 40990 ft | 581 kts | 94° |
| 2026-05-06 14:51 | 36.00223 | -103.82140 | 40991 ft | 582 kts | 94° |
| 2026-05-06 14:51 | 36.00425 | -103.72117 | 41003 ft | 584 kts | 94° |
| 2026-05-06 14:52 | 36.00582 | -103.62136 | 41004 ft | 584 kts | 94° |
| 2026-05-06 14:52 | 36.00713 | -103.52109 | 41004 ft | 584 kts | 94° |
| 2026-05-06 14:53 | 36.00831 | -103.42053 | 41010 ft | 586 kts | 95° |
| 2026-05-06 14:53 | 36.00943 | -103.31955 | 41014 ft | 588 kts | 95° |
| 2026-05-06 14:54 | 36.01051 | -103.21850 | 40992 ft | 588 kts | 95° |
| 2026-05-06 14:54 | 36.01149 | -103.11783 | 41022 ft | 590 kts | 95° |
| 2026-05-06 14:55 | 36.01238 | -103.01617 | 41023 ft | 593 kts | 95° |
| 2026-05-06 14:55 | 36.01320 | -102.91436 | 41041 ft | 593 kts | 95° |
| 2026-05-06 14:56 | 36.01394 | -102.81233 | 41067 ft | 593 kts | 95° |
| 2026-05-06 14:56 | 36.01459 | -102.71043 | 41087 ft | 594 kts | 95° |
| 2026-05-06 14:57 | 36.01505 | -102.62553 | 41099 ft | 595 kts | 95° |
| 2026-05-06 14:57 | 36.01554 | -102.52324 | 41101 ft | 595 kts | 95° |
| 2026-05-06 14:58 | 36.01595 | -102.42089 | 41095 ft | 595 kts | 95° |
| 2026-05-06 14:58 | 36.01626 | -102.31855 | 41074 ft | 597 kts | 95° |
| 2026-05-06 14:59 | 36.01648 | -102.21589 | 41056 ft | 598 kts | 95° |
| 2026-05-06 14:59 | 36.01663 | -102.11322 | 41037 ft | 597 kts | 95° |
| 2026-05-06 15:00 | 36.01668 | -102.01123 | 41045 ft | 598 kts | 95° |
| 2026-05-06 15:00 | 36.01664 | -101.90830 | 41051 ft | 599 kts | 95° |
| 2026-05-06 15:01 | 36.01652 | -101.80518 | 41063 ft | 600 kts | 95° |
| 2026-05-06 15:01 | 36.01631 | -101.70268 | 41076 ft | 600 kts | 96° |
| 2026-05-06 15:02 | 36.01602 | -101.59963 | 41081 ft | 600 kts | 95° |
| 2026-05-06 15:02 | 36.01563 | -101.49648 | 41079 ft | 600 kts | 96° |
| 2026-05-06 15:03 | 36.01515 | -101.39331 | 41097 ft | 600 kts | 96° |
| 2026-05-06 15:03 | 36.01459 | -101.29004 | 41084 ft | 600 kts | 96° |
| 2026-05-06 15:04 | 36.01394 | -101.18686 | 41102 ft | 601 kts | 96° |
| 2026-05-06 15:04 | 36.01319 | -101.08355 | 41097 ft | 601 kts | 96° |
| 2026-05-06 15:05 | 36.01237 | -100.98085 | 41105 ft | 601 kts | 96° |
| 2026-05-06 15:05 | 36.01145 | -100.87765 | 41106 ft | 601 kts | 96° |
| 2026-05-06 15:06 | 36.01045 | -100.77455 | 41101 ft | 601 kts | 96° |
| 2026-05-06 15:06 | 36.00935 | -100.67119 | 41114 ft | 601 kts | 96° |
| 2026-05-06 15:07 | 36.00817 | -100.56844 | 41093 ft | 601 kts | 96° |
| 2026-05-06 15:07 | 36.00690 | -100.46513 | 41114 ft | 601 kts | 96° |
| 2026-05-06 15:08 | 36.00554 | -100.36164 | 41117 ft | 601 kts | 97° |
| 2026-05-06 15:08 | 36.00410 | -100.25914 | 41114 ft | 601 kts | 97° |
| 2026-05-06 15:09 | 36.00257 | -100.15587 | 41119 ft | 601 kts | 97° |
| 2026-05-06 15:09 | 36.00094 | -100.05254 | 41107 ft | 601 kts | 97° |
| 2026-05-06 15:10 | 35.99952 | -99.94935 | 41112 ft | 602 kts | 96° |
| 2026-05-06 15:10 | 36.00032 | -99.84589 | 41127 ft | 603 kts | 94° |
| 2026-05-06 15:11 | 36.00167 | -99.74286 | 41114 ft | 603 kts | 95° |
| 2026-05-06 15:11 | 36.00258 | -99.63933 | 41111 ft | 602 kts | 95° |
| 2026-05-06 15:12 | 36.00311 | -99.53579 | 41109 ft | 602 kts | 95° |
| 2026-05-06 15:12 | 36.00347 | -99.43229 | 41107 ft | 602 kts | 95° |
| 2026-05-06 15:13 | 36.00377 | -99.32953 | 41105 ft | 603 kts | 95° |
| 2026-05-06 15:13 | 36.00400 | -99.22594 | 41105 ft | 603 kts | 95° |
| 2026-05-06 15:14 | 36.00415 | -99.12236 | 41099 ft | 603 kts | 95° |
| 2026-05-06 15:14 | 36.00421 | -99.01862 | 41096 ft | 603 kts | 95° |
| 2026-05-06 15:15 | 36.00419 | -98.91493 | 41094 ft | 603 kts | 96° |
| 2026-05-06 15:15 | 36.00407 | -98.81116 | 41094 ft | 603 kts | 96° |
| 2026-05-06 15:16 | 36.00387 | -98.70827 | 41082 ft | 603 kts | 96° |
| 2026-05-06 15:16 | 36.00357 | -98.60452 | 41093 ft | 604 kts | 96° |
| 2026-05-06 15:17 | 36.00319 | -98.50084 | 41089 ft | 604 kts | 96° |
| 2026-05-06 15:17 | 36.00271 | -98.39712 | 41132 ft | 604 kts | 96° |
| 2026-05-06 15:18 | 36.00215 | -98.29334 | 41133 ft | 604 kts | 96° |
| 2026-05-06 15:18 | 36.00149 | -98.18941 | 41117 ft | 605 kts | 96° |
| 2026-05-06 15:19 | 36.00075 | -98.08546 | 41103 ft | 605 kts | 96° |
| 2026-05-06 15:19 | 35.99666 | -97.98213 | 41094 ft | 597 kts | 105° |
| 2026-05-06 15:20 | 35.98458 | -97.88152 | 41059 ft | 595 kts | 107° |
| 2026-05-06 15:20 | 35.97082 | -97.78090 | 41088 ft | 594 kts | 107° |
| 2026-05-06 15:21 | 35.95673 | -97.68029 | 41088 ft | 594 kts | 107° |
| 2026-05-06 15:21 | 35.94275 | -97.57977 | 41083 ft | 594 kts | 107° |
| 2026-05-06 15:22 | 35.92879 | -97.47912 | 41099 ft | 595 kts | 107° |
| 2026-05-06 15:22 | 35.91478 | -97.37849 | 41097 ft | 595 kts | 107° |
| 2026-05-06 15:23 | 35.90076 | -97.27843 | 41104 ft | 595 kts | 107° |
| 2026-05-06 15:23 | 35.88655 | -97.17781 | 41106 ft | 595 kts | 107° |
| 2026-05-06 15:24 | 35.87227 | -97.07731 | 41105 ft | 595 kts | 107° |
| 2026-05-06 15:24 | 35.85790 | -96.97684 | 41111 ft | 595 kts | 107° |
| 2026-05-06 15:25 | 35.84345 | -96.87642 | 41115 ft | 594 kts | 107° |
| 2026-05-06 15:25 | 35.82891 | -96.77602 | 41116 ft | 595 kts | 107° |
| 2026-05-06 15:26 | 35.81426 | -96.67547 | 41114 ft | 596 kts | 107° |
| 2026-05-06 15:26 | 35.79964 | -96.57566 | 41109 ft | 596 kts | 107° |
| 2026-05-06 15:27 | 35.78483 | -96.47518 | 41089 ft | 596 kts | 108° |
| 2026-05-06 15:27 | 35.76995 | -96.37482 | 41088 ft | 596 kts | 107° |
| 2026-05-06 15:28 | 35.75495 | -96.27428 | 41094 ft | 596 kts | 107° |
| 2026-05-06 15:28 | 35.73988 | -96.17384 | 41102 ft | 596 kts | 107° |
| 2026-05-06 15:29 | 35.72473 | -96.07349 | 41099 ft | 596 kts | 107° |
| 2026-05-06 15:29 | 35.70949 | -95.97312 | 41110 ft | 596 kts | 107° |
| 2026-05-06 15:30 | 35.69418 | -95.87286 | 41107 ft | 596 kts | 108° |
| 2026-05-06 15:30 | 35.68159 | -95.77223 | 41110 ft | 601 kts | 102° |
| 2026-05-06 15:31 | 35.67289 | -95.66987 | 41099 ft | 602 kts | 101° |
| 2026-05-06 15:31 | 35.66404 | -95.56706 | 41104 ft | 602 kts | 102° |
| 2026-05-06 15:32 | 35.64929 | -95.41431 | 41108 ft | 602 kts | 103° |
| 2026-05-06 15:32 | 35.63899 | -95.31217 | 41092 ft | 601 kts | 103° |
| 2026-05-06 15:33 | 35.62865 | -95.21014 | 41108 ft | 601 kts | 103° |
| 2026-05-06 15:33 | 35.61829 | -95.10815 | 41093 ft | 601 kts | 103° |
| 2026-05-06 15:34 | 35.60785 | -95.00615 | 41080 ft | 601 kts | 103° |
| 2026-05-06 15:34 | 35.59731 | -94.90411 | 41069 ft | 602 kts | 103° |
| 2026-05-06 15:35 | 35.58669 | -94.80217 | 41087 ft | 602 kts | 103° |
| 2026-05-06 15:35 | 35.57602 | -94.70064 | 41075 ft | 602 kts | 103° |
| 2026-05-06 15:36 | 35.56524 | -94.59874 | 41070 ft | 602 kts | 103° |
| 2026-05-06 15:36 | 35.55437 | -94.49685 | 41072 ft | 602 kts | 103° |
| 2026-05-06 15:37 | 35.54338 | -94.39481 | 41073 ft | 602 kts | 103° |
| 2026-05-06 15:37 | 35.53233 | -94.29292 | 41073 ft | 602 kts | 103° |
| 2026-05-06 15:38 | 35.52119 | -94.19102 | 41046 ft | 602 kts | 103° |
| 2026-05-06 15:38 | 35.50995 | -94.08913 | 41062 ft | 602 kts | 103° |
| 2026-05-06 15:39 | 35.49868 | -93.98765 | 41057 ft | 603 kts | 103° |
| 2026-05-06 15:39 | 35.48781 | -93.88545 | 41052 ft | 603 kts | 103° |
| 2026-05-06 15:40 | 35.47728 | -93.78328 | 41053 ft | 603 kts | 103° |
| 2026-05-06 15:40 | 35.46667 | -93.68175 | 41051 ft | 603 kts | 103° |
| 2026-05-06 15:41 | 35.45581 | -93.57950 | 41054 ft | 603 kts | 103° |
| 2026-05-06 15:41 | 35.44482 | -93.47745 | 41046 ft | 604 kts | 103° |
| 2026-05-06 15:42 | 35.43374 | -93.37531 | 41064 ft | 603 kts | 103° |
| 2026-05-06 15:42 | 35.42266 | -93.27396 | 41078 ft | 603 kts | 103° |
| 2026-05-06 15:43 | 35.41141 | -93.17176 | 41088 ft | 603 kts | 103° |
| 2026-05-06 15:43 | 35.40010 | -93.06987 | 41090 ft | 603 kts | 103° |
| 2026-05-06 15:44 | 35.38870 | -92.96807 | 41083 ft | 603 kts | 103° |
| 2026-05-06 15:44 | 35.37721 | -92.86613 | 41083 ft | 603 kts | 103° |
| 2026-05-06 15:45 | 35.36571 | -92.76491 | 41060 ft | 603 kts | 103° |
| 2026-05-06 15:45 | 35.35408 | -92.66326 | 41052 ft | 603 kts | 103° |
| 2026-05-06 15:46 | 35.34431 | -92.57853 | 41081 ft | 603 kts | 103° |
| 2026-05-06 15:46 | 35.33250 | -92.47678 | 41081 ft | 603 kts | 103° |
| 2026-05-06 15:47 | 35.31869 | -92.35871 | 41084 ft | 603 kts | 103° |
| 2026-05-06 15:47 | 35.30865 | -92.27358 | 41081 ft | 603 kts | 103° |
| 2026-05-06 15:48 | 35.29665 | -92.17248 | 41081 ft | 603 kts | 103° |
| 2026-05-06 15:48 | 35.28449 | -92.07077 | 41081 ft | 603 kts | 103° |
| 2026-05-06 15:49 | 35.27226 | -91.96921 | 41078 ft | 603 kts | 103° |
| 2026-05-06 15:49 | 35.25994 | -91.86770 | 41086 ft | 603 kts | 103° |
| 2026-05-06 15:50 | 35.24756 | -91.76632 | 41091 ft | 602 kts | 103° |
| 2026-05-06 15:50 | 35.23516 | -91.66548 | 41031 ft | 602 kts | 103° |
| 2026-05-06 15:51 | 35.22262 | -91.56426 | 41093 ft | 600 kts | 103° |
| 2026-05-06 15:51 | 35.21003 | -91.46333 | 41085 ft | 599 kts | 103° |
| 2026-05-06 15:52 | 35.19739 | -91.36274 | 41080 ft | 598 kts | 103° |
| 2026-05-06 15:52 | 35.18467 | -91.26225 | 41080 ft | 598 kts | 103° |
| 2026-05-06 15:53 | 35.17188 | -91.16189 | 41082 ft | 598 kts | 103° |
| 2026-05-06 15:53 | 35.15909 | -91.06210 | 41063 ft | 597 kts | 103° |
| 2026-05-06 15:54 | 35.14615 | -90.96183 | 41071 ft | 596 kts | 103° |
| 2026-05-06 15:54 | 35.13311 | -90.86156 | 41063 ft | 596 kts | 103° |
| 2026-05-06 15:55 | 35.12009 | -90.76208 | 41052 ft | 596 kts | 104° |
| 2026-05-06 15:55 | 35.10690 | -90.66192 | 41057 ft | 595 kts | 103° |
| 2026-05-06 15:56 | 35.09375 | -90.56268 | 41044 ft | 595 kts | 104° |
| 2026-05-06 15:56 | 35.08041 | -90.46269 | 41023 ft | 595 kts | 104° |
| 2026-05-06 15:57 | 35.06701 | -90.36294 | 41020 ft | 595 kts | 104° |
| 2026-05-06 15:57 | 35.05356 | -90.26336 | 41031 ft | 595 kts | 104° |
| 2026-05-06 15:58 | 35.04001 | -90.16375 | 41040 ft | 594 kts | 104° |
| 2026-05-06 15:58 | 35.02646 | -90.06475 | 41020 ft | 594 kts | 104° |
| 2026-05-06 15:59 | 35.01276 | -89.96522 | 41007 ft | 594 kts | 104° |
| 2026-05-06 15:59 | 34.99897 | -89.86587 | 41007 ft | 593 kts | 104° |
| 2026-05-06 16:00 | 34.98500 | -89.76661 | 41000 ft | 593 kts | 104° |
| 2026-05-06 16:00 | 34.97107 | -89.66811 | 41009 ft | 591 kts | 104° |
| 2026-05-06 16:01 | 34.95702 | -89.56929 | 41006 ft | 591 kts | 104° |
| 2026-05-06 16:01 | 34.94292 | -89.47064 | 41002 ft | 591 kts | 104° |
| 2026-05-06 16:02 | 34.92873 | -89.37191 | 40991 ft | 591 kts | 104° |
| 2026-05-06 16:02 | 34.91447 | -89.27328 | 40990 ft | 591 kts | 104° |
| 2026-05-06 16:03 | 34.90012 | -89.17458 | 40990 ft | 590 kts | 104° |
| 2026-05-06 16:03 | 34.88574 | -89.07626 | 40989 ft | 589 kts | 104° |
| 2026-05-06 16:04 | 34.87137 | -88.97863 | 40986 ft | 589 kts | 104° |
| 2026-05-06 16:04 | 34.85684 | -88.88047 | 40984 ft | 589 kts | 104° |
| 2026-05-06 16:05 | 34.84223 | -88.78238 | 40981 ft | 589 kts | 104° |
| 2026-05-06 16:05 | 34.82749 | -88.68390 | 40981 ft | 588 kts | 104° |
| 2026-05-06 16:06 | 34.81283 | -88.58658 | 40978 ft | 588 kts | 105° |
| 2026-05-06 16:06 | 34.79795 | -88.48831 | 40978 ft | 588 kts | 105° |
| 2026-05-06 16:07 | 34.78310 | -88.39084 | 40970 ft | 590 kts | 104° |
| 2026-05-06 16:07 | 34.76806 | -88.29265 | 40958 ft | 591 kts | 104° |
| 2026-05-06 16:08 | 34.75293 | -88.19434 | 40953 ft | 591 kts | 104° |
| 2026-05-06 16:08 | 34.73773 | -88.09620 | 40948 ft | 590 kts | 105° |
| 2026-05-06 16:09 | 34.72244 | -87.99798 | 40948 ft | 591 kts | 104° |
| 2026-05-06 16:09 | 34.70714 | -87.90031 | 40963 ft | 591 kts | 104° |
| 2026-05-06 16:10 | 34.69165 | -87.80189 | 40953 ft | 591 kts | 104° |
| 2026-05-06 16:10 | 34.67613 | -87.70381 | 40961 ft | 591 kts | 104° |
| 2026-05-06 16:11 | 34.66049 | -87.60559 | 40979 ft | 591 kts | 104° |
| 2026-05-06 16:11 | 34.64491 | -87.50826 | 40975 ft | 590 kts | 104° |
| 2026-05-06 16:12 | 34.62915 | -87.41034 | 40962 ft | 590 kts | 104° |
| 2026-05-06 16:12 | 34.61179 | -87.31292 | 40956 ft | 589 kts | 106° |
| 2026-05-06 16:13 | 34.59347 | -87.21616 | 40956 ft | 587 kts | 106° |
| 2026-05-06 16:13 | 34.57530 | -87.11957 | 40975 ft | 587 kts | 106° |
| 2026-05-06 16:14 | 34.55794 | -87.02271 | 40980 ft | 587 kts | 104° |
| 2026-05-06 16:14 | 34.54026 | -86.92604 | 40988 ft | 585 kts | 110° |
| 2026-05-06 16:15 | 34.51656 | -86.83230 | 40976 ft | 585 kts | 111° |
| 2026-05-06 16:15 | 34.49198 | -86.73818 | 40977 ft | 585 kts | 111° |
| 2026-05-06 16:16 | 34.46751 | -86.64466 | 40978 ft | 585 kts | 111° |
| 2026-05-06 16:16 | 34.44287 | -86.55065 | 40982 ft | 585 kts | 111° |
| 2026-05-06 16:17 | 34.41816 | -86.45667 | 40959 ft | 584 kts | 111° |
| 2026-05-06 16:17 | 34.39347 | -86.36310 | 40999 ft | 583 kts | 111° |
| 2026-05-06 16:18 | 34.36870 | -86.26956 | 41002 ft | 583 kts | 111° |
| 2026-05-06 16:18 | 34.34401 | -86.17662 | 40990 ft | 583 kts | 111° |
| 2026-05-06 16:19 | 34.31937 | -86.08309 | 40981 ft | 582 kts | 110° |
| 2026-05-06 16:19 | 34.29528 | -85.98955 | 40980 ft | 582 kts | 110° |
| 2026-05-06 16:20 | 34.27105 | -85.89613 | 40982 ft | 582 kts | 110° |
| 2026-05-06 16:20 | 34.24682 | -85.80329 | 40989 ft | 582 kts | 110° |
| 2026-05-06 16:21 | 34.22240 | -85.71004 | 40988 ft | 582 kts | 110° |
| 2026-05-06 16:21 | 34.19784 | -85.61660 | 40988 ft | 582 kts | 110° |
| 2026-05-06 16:22 | 34.17326 | -85.52343 | 40988 ft | 582 kts | 110° |
| 2026-05-06 16:22 | 34.14874 | -85.43080 | 40989 ft | 582 kts | 110° |
| 2026-05-06 16:23 | 34.12423 | -85.33770 | 40968 ft | 581 kts | 110° |
| 2026-05-06 16:23 | 34.10014 | -85.24432 | 41006 ft | 582 kts | 110° |
| 2026-05-06 16:24 | 34.07592 | -85.15102 | 41017 ft | 583 kts | 110° |
| 2026-05-06 16:24 | 34.04926 | -85.05891 | 41038 ft | 577 kts | 122° |
| 2026-05-06 16:25 | 34.02750 | -85.01904 | 41043 ft | 563 kts | 137° |
| 2026-05-06 16:25 | 33.99993 | -84.98731 | 41052 ft | 548 kts | 151° |
| 2026-05-06 16:25 | 33.93915 | -84.93162 | 41043 ft | 551 kts | 150° |
| 2026-05-06 16:26 | 33.87946 | -84.87315 | 41046 ft | 554 kts | 148° |
| 2026-05-06 16:26 | 33.82041 | -84.81308 | 41046 ft | 555 kts | 148° |
| 2026-05-06 16:27 | 33.76160 | -84.75267 | 41053 ft | 555 kts | 148° |
| 2026-05-06 16:27 | 33.70064 | -84.69902 | 41051 ft | 539 kts | 159° |
| 2026-05-06 16:28 | 33.63562 | -84.65375 | 41064 ft | 539 kts | 159° |
| 2026-05-06 16:28 | 33.57061 | -84.60834 | 41044 ft | 542 kts | 159° |
| 2026-05-06 16:29 | 33.54085 | -84.58026 | 41057 ft | 560 kts | 141° |
| 2026-05-06 16:29 | 33.51610 | -84.54290 | 41063 ft | 572 kts | 126° |
| 2026-05-06 16:29 | 33.49924 | -84.50022 | 41068 ft | 579 kts | 110° |
| 2026-05-06 16:29 | 33.49056 | -84.45313 | 41064 ft | 581 kts | 95° |
| 2026-05-06 16:30 | 33.49094 | -84.40486 | 41066 ft | 577 kts | 79° |
| 2026-05-06 16:30 | 33.49311 | -84.38886 | 41065 ft | 574 kts | 73° |
| 2026-05-06 16:30 | 33.52435 | -84.26797 | 41099 ft | 577 kts | 75° |
| 2026-05-06 16:31 | 33.53378 | -84.17206 | 41087 ft | 582 kts | 84° |
| 2026-05-06 16:31 | 33.53634 | -84.07488 | 41052 ft | 583 kts | 87° |
| 2026-05-06 16:32 | 33.53747 | -83.97827 | 41068 ft | 583 kts | 86° |
| 2026-05-06 16:32 | 33.53922 | -83.88109 | 41066 ft | 584 kts | 86° |
| 2026-05-06 16:33 | 33.54045 | -83.80003 | 41068 ft | 584 kts | 86° |
| 2026-05-06 16:34 | 33.54235 | -83.65392 | 41056 ft | 584 kts | 87° |
| 2026-05-06 16:34 | 33.54349 | -83.55641 | 41047 ft | 584 kts | 87° |
| 2026-05-06 16:35 | 33.54455 | -83.45897 | 41028 ft | 584 kts | 86° |
| 2026-05-06 16:35 | 33.54569 | -83.34548 | 41075 ft | 585 kts | 87° |
| 2026-05-06 16:36 | 33.54644 | -83.26446 | 41087 ft | 585 kts | 87° |
| 2026-05-06 16:36 | 33.54727 | -83.16708 | 41089 ft | 584 kts | 87° |
| 2026-05-06 16:37 | 33.54800 | -83.07014 | 40574 ft | 576 kts | 86° |
| 2026-05-06 16:37 | 33.54834 | -83.02230 | 40045 ft | 572 kts | 86° |
| 2026-05-06 16:37 | 33.54864 | -82.97490 | 39256 ft | 564 kts | 86° |
| 2026-05-06 16:37 | 33.54885 | -82.92810 | 38326 ft | 560 kts | 86° |
| 2026-05-06 16:38 | 33.55070 | -82.88205 | 37510 ft | 545 kts | 76° |
| 2026-05-06 16:38 | 33.56012 | -82.83925 | 36852 ft | 519 kts | 60° |
| 2026-05-06 16:38 | 33.57700 | -82.80246 | 36144 ft | 490 kts | 44° |
| 2026-05-06 16:38 | 33.59974 | -82.77393 | 35423 ft | 460 kts | 28° |
| 2026-05-06 16:39 | 33.62645 | -82.75508 | 34662 ft | 431 kts | 12° |
| 2026-05-06 16:39 | 33.65465 | -82.74690 | 33792 ft | 406 kts | 355° |
| 2026-05-06 16:39 | 33.68164 | -82.74937 | 32809 ft | 386 kts | 338° |
| 2026-05-06 16:39 | 33.70561 | -82.76185 | 31813 ft | 370 kts | 320° |
| 2026-05-06 16:40 | 33.72390 | -82.78279 | 30853 ft | 360 kts | 302° |
| 2026-05-06 16:40 | 33.73667 | -82.80853 | 29823 ft | 358 kts | 297° |
| 2026-05-06 16:40 | 33.74774 | -82.83564 | 28377 ft | 366 kts | 291° |
| 2026-05-06 16:40 | 33.75592 | -82.86490 | 27027 ft | 373 kts | 283° |
| 2026-05-06 16:41 | 33.75974 | -82.89595 | 25820 ft | 377 kts | 274° |
| 2026-05-06 16:41 | 33.75861 | -82.92735 | 24780 ft | 376 kts | 266° |
| 2026-05-06 16:41 | 33.75563 | -82.95744 | 23839 ft | 373 kts | 265° |
| 2026-05-06 16:41 | 33.75304 | -82.98165 | 22978 ft | 371 kts | 265° |
| 2026-05-06 16:42 | 33.74975 | -83.01209 | 22019 ft | 363 kts | 265° |
| 2026-05-06 16:42 | 33.74655 | -83.04168 | 21234 ft | 351 kts | 265° |
| 2026-05-06 16:42 | 33.74343 | -83.07042 | 20425 ft | 340 kts | 265° |
| 2026-05-06 16:42 | 33.74040 | -83.09841 | 19804 ft | 336 kts | 265° |
| 2026-05-06 16:43 | 33.73743 | -83.12586 | 19524 ft | 328 kts | 265° |
| 2026-05-06 16:43 | 33.73451 | -83.15285 | 19315 ft | 323 kts | 265° |
| 2026-05-06 16:43 | 33.73163 | -83.17931 | 19032 ft | 316 kts | 266° |
| 2026-05-06 16:43 | 33.72877 | -83.20549 | 18635 ft | 313 kts | 266° |
| 2026-05-06 16:44 | 33.72599 | -83.23104 | 18218 ft | 311 kts | 265° |
| 2026-05-06 16:44 | 33.72320 | -83.25666 | 17783 ft | 307 kts | 265° |
| 2026-05-06 16:44 | 33.72043 | -83.28191 | 17389 ft | 304 kts | 265° |
| 2026-05-06 16:44 | 33.71769 | -83.30696 | 17001 ft | 301 kts | 265° |
| 2026-05-06 16:45 | 33.71496 | -83.33186 | 16584 ft | 298 kts | 265° |
| 2026-05-06 16:45 | 33.71225 | -83.35642 | 16197 ft | 295 kts | 264° |
| 2026-05-06 16:45 | 33.70957 | -83.38066 | 15807 ft | 291 kts | 264° |
| 2026-05-06 16:45 | 33.70693 | -83.40456 | 15433 ft | 288 kts | 264° |
| 2026-05-06 16:46 | 33.70431 | -83.42827 | 15047 ft | 285 kts | 264° |
| 2026-05-06 16:46 | 33.70170 | -83.45181 | 14653 ft | 282 kts | 263° |
| 2026-05-06 16:46 | 33.69912 | -83.47506 | 14293 ft | 280 kts | 263° |
| 2026-05-06 16:46 | 33.69653 | -83.49832 | 13913 ft | 280 kts | 263° |
| 2026-05-06 16:47 | 33.69394 | -83.52144 | 13501 ft | 279 kts | 262° |
| 2026-05-06 16:47 | 33.69138 | -83.54426 | 13132 ft | 278 kts | 262° |
| 2026-05-06 16:47 | 33.68881 | -83.56718 | 12763 ft | 275 kts | 262° |
| 2026-05-06 16:47 | 33.68624 | -83.59003 | 12399 ft | 275 kts | 262° |
| 2026-05-06 16:48 | 33.68369 | -83.61271 | 12037 ft | 275 kts | 262° |
| 2026-05-06 16:48 | 33.68112 | -83.63552 | 11663 ft | 275 kts | 262° |
| 2026-05-06 16:48 | 33.67855 | -83.65829 | 11295 ft | 274 kts | 262° |
| 2026-05-06 16:48 | 33.67603 | -83.68072 | 10924 ft | 273 kts | 262° |
| 2026-05-06 16:49 | 33.67365 | -83.70295 | 10664 ft | 261 kts | 263° |
| 2026-05-06 16:49 | 33.67165 | -83.72436 | 9944 ft | 257 kts | 263° |
| 2026-05-06 16:49 | 33.66970 | -83.74562 | 9380 ft | 253 kts | 263° |
| 2026-05-06 16:49 | 33.66773 | -83.76670 | 9098 ft | 254 kts | 263° |
| 2026-05-06 16:50 | 33.66575 | -83.78770 | 8819 ft | 253 kts | 263° |
| 2026-05-06 16:50 | 33.66377 | -83.80842 | 8541 ft | 252 kts | 263° |
| 2026-05-06 16:50 | 33.66176 | -83.82936 | 8266 ft | 252 kts | 263° |
| 2026-05-06 16:50 | 33.65976 | -83.85017 | 7984 ft | 252 kts | 263° |
| 2026-05-06 16:51 | 33.65771 | -83.87136 | 7704 ft | 252 kts | 263° |
| 2026-05-06 16:51 | 33.65573 | -83.89193 | 7431 ft | 251 kts | 263° |
| 2026-05-06 16:51 | 33.65287 | -83.91249 | 7153 ft | 251 kts | 251° |
| 2026-05-06 16:51 | 33.64632 | -83.93190 | 6876 ft | 251 kts | 251° |
| 2026-05-06 16:52 | 33.64039 | -83.95170 | 6598 ft | 252 kts | 252° |
| 2026-05-06 16:52 | 33.63551 | -83.97186 | 6315 ft | 252 kts | 257° |
| 2026-05-06 16:52 | 33.63288 | -83.99260 | 6185 ft | 251 kts | 265° |
| 2026-05-06 16:52 | 33.63205 | -84.01356 | 6175 ft | 252 kts | 268° |
| 2026-05-06 16:53 | 33.63188 | -84.03456 | 6176 ft | 251 kts | 269° |
| 2026-05-06 16:53 | 33.63191 | -84.05551 | 6179 ft | 251 kts | 269° |
| 2026-05-06 16:53 | 33.63191 | -84.07642 | 6176 ft | 251 kts | 269° |
| 2026-05-06 16:53 | 33.63187 | -84.09714 | 6138 ft | 251 kts | 269° |
| 2026-05-06 16:54 | 33.63187 | -84.11788 | 5908 ft | 245 kts | 269° |
| 2026-05-06 16:54 | 33.63187 | -84.13823 | 5577 ft | 241 kts | 269° |
| 2026-05-06 16:54 | 33.63186 | -84.15812 | 5222 ft | 237 kts | 269° |
| 2026-05-06 16:54 | 33.63186 | -84.17776 | 4891 ft | 234 kts | 269° |
| 2026-05-06 16:55 | 33.63186 | -84.19714 | 4560 ft | 229 kts | 269° |
| 2026-05-06 16:55 | 33.63185 | -84.21618 | 4252 ft | 226 kts | 269° |
| 2026-05-06 16:55 | 33.63186 | -84.23481 | 3963 ft | 220 kts | 268° |
| 2026-05-06 16:55 | 33.63185 | -84.25267 | 3711 ft | 210 kts | 268° |
| 2026-05-06 16:56 | 33.63186 | -84.26955 | 3434 ft | 193 kts | 267° |
| 2026-05-06 16:56 | 33.63186 | -84.28491 | 3187 ft | 175 kts | 266° |
| 2026-05-06 16:56 | 33.63186 | -84.29897 | 2952 ft | 161 kts | 267° |
| 2026-05-06 16:56 | 33.63186 | -84.31185 | 2762 ft | 147 kts | 266° |
| 2026-05-06 16:57 | 33.63185 | -84.32350 | 2576 ft | 134 kts | 268° |
| 2026-05-06 16:57 | 33.63185 | -84.33438 | 2412 ft | 127 kts | 267° |
| 2026-05-06 16:57 | 33.63185 | -84.34498 | 2239 ft | 128 kts | 265° |
| 2026-05-06 16:57 | 33.63184 | -84.35560 | 2078 ft | 128 kts | 265° |
| 2026-05-06 16:58 | 33.63184 | -84.36639 | 1910 ft | 130 kts | 266° |
| 2026-05-06 16:58 | 33.63183 | -84.37719 | 1708 ft | 129 kts | 267° |
| 2026-05-06 16:58 | 33.63188 | -84.38775 | 1525 ft | 130 kts | 264° |
| 2026-05-06 16:58 | 33.63174 | -84.39868 | 1374 ft | 133 kts | 268° |
| 2026-05-06 16:59 | 33.63182 | -84.40997 | 1198 ft | 137 kts | 263° |
| 2026-05-06 16:59 | 33.63181 | -84.42143 | 1053 ft | 137 kts | 264° |
| 2026-05-06 16:59 | 33.63181 | -84.43160 | 1044 ft | 98 kts | 270° |
| 2026-05-06 16:59 | 33.63183 | -84.43770 | 1041 ft | 46 kts | 270° |
| 2026-05-06 17:00 | 33.63203 | -84.44088 | 1040 ft | 33 kts | 288° |
| 2026-05-06 17:00 | 33.63282 | -84.44256 | 1041 ft | 12 kts | 323° |
| 2026-05-06 17:00 | 33.63340 | -84.44250 | 1041 ft | 0 kts | 31° |
| 2026-05-06 17:00 | 33.63340 | -84.44249 | 1041 ft | 0 kts | 31° |
| 2026-05-06 17:01 | 33.63348 | -84.44242 | 1041 ft | 3 kts | 36° |
| 2026-05-06 17:01 | 33.63352 | -84.44238 | 1041 ft | 0 kts | 39° |
| 2026-05-06 17:02 | 33.63370 | -84.44222 | 1041 ft | 10 kts | 36° |
| 2026-05-06 17:02 | 33.63486 | -84.44195 | 1042 ft | 23 kts | 2° |
| 2026-05-06 17:03 | 33.63647 | -84.44182 | 1042 ft | 22 kts | 28° |
| 2026-05-06 17:03 | 33.63742 | -84.44117 | 1042 ft | 14 kts | 3° |
| 2026-05-06 17:03 | 33.63785 | -84.44140 | 1042 ft | 5 kts | 282° |
| 2026-05-06 17:03 | 33.63789 | -84.44164 | 1042 ft | 2 kts | 282° |
| 2026-05-06 17:04 | 33.63790 | -84.44179 | 1042 ft | 0 kts | 272° |
| 2026-05-06 17:04 | 33.63790 | -84.44186 | 1042 ft | 1 kts | 272° |
| 2026-05-06 17:04 | 33.63790 | -84.44191 | 1042 ft | 0 kts | 271° |